Time;durP1;ratioP1;P1;durP2;ratioP2;P2;SDS_P1;SDS_P2;PMS_P1;PMS_P2;Temp;Humidity;BMP_temperature;BMP_pressure;BME280_temperature;BME280_humidity;BME280_pressure;Samples;Min_cycle;Max_cycle;Signal;HPM_P1;HPM_P2
2023/07/16 00:01:33;;;;;;;4.10;1.13;;;;;;;18.05;100.00;97883.47;18427675;32;20097;-58
2023/07/16 00:11:36;;;;;;;1.10;0.67;;;;;;;18.02;100.00;97881.38;18441137;32;20057;-58
2023/07/16 00:21:40;;;;;;;3.07;1.10;;;;;;;17.97;100.00;97875.25;18440423;32;20100;-58
2023/07/16 00:31:43;;;;;;;2.43;0.97;;;;;;;17.94;100.00;97888.41;18439984;32;20054;-58
2023/07/16 00:41:46;;;;;;;2.40;1.02;;;;;;;17.94;100.00;97876.69;18437974;32;20073;-58
2023/07/16 00:51:51;;;;;;;1.60;0.90;;;;;;;17.84;100.00;97863.22;18432146;32;20106;-58
2023/07/16 01:01:54;;;;;;;4.70;1.30;;;;;;;17.75;100.00;97885.06;18411217;32;20050;-58
2023/07/16 01:12:00;;;;;;;2.40;0.90;;;;;;;17.77;100.00;97891.81;18422651;32;20050;-59
2023/07/16 01:22:07;;;;;;;1.80;0.70;;;;;;;17.71;100.00;97886.78;18423249;32;20078;-58
2023/07/16 01:32:24;;;;;;;3.62;0.77;;;;;;;17.58;100.00;97900.22;18423021;32;20079;-58
2023/07/16 01:42:27;;;;;;;6.22;1.00;;;;;;;17.51;100.00;97896.28;18435136;32;20057;-58
2023/07/16 01:52:30;;;;;;;1.60;0.97;;;;;;;17.54;100.00;97887.47;18407985;32;20468;-58
2023/07/16 02:02:33;;;;;;;1.20;0.77;;;;;;;17.45;100.00;97882.75;18420546;32;20061;-58
2023/07/16 02:12:36;;;;;;;1.30;1.00;;;;;;;17.32;100.00;97896.47;18434152;32;20461;-58
2023/07/16 02:22:39;;;;;;;1.25;0.80;;;;;;;17.33;100.00;97920.75;18433133;32;20099;-58
2023/07/16 02:32:43;;;;;;;;;;;;;;;17.30;100.00;97909.62;18433389;32;20070;-58
2023/07/16 02:42:46;;;;;;;4.12;0.90;;;;;;;17.29;100.00;97911.53;18418245;32;20261;-58
2023/07/16 02:52:49;;;;;;;4.60;0.93;;;;;;;17.23;100.00;97905.37;18431919;32;20357;-59
2023/07/16 03:02:51;;;;;;;1.35;0.90;;;;;;;17.19;100.00;97874.34;18431503;32;20110;-58
2023/07/16 03:12:55;;;;;;;1.20;0.70;;;;;;;17.10;100.00;97898.03;18431566;32;20045;-58
2023/07/16 03:22:57;;;;;;;2.87;0.98;;;;;;;17.11;100.00;97899.66;18416790;32;20433;-58
2023/07/16 03:33:00;;;;;;;4.07;0.80;;;;;;;16.92;100.00;97894.31;18424339;32;20078;-58
2023/07/16 03:43:03;;;;;;;2.17;0.98;;;;;;;16.83;100.00;97932.47;18403417;32;20057;-58
2023/07/16 03:53:06;;;;;;;2.47;0.93;;;;;;;16.68;100.00;97957.34;18416429;32;20102;-58
2023/07/16 04:03:08;;;;;;;3.35;0.70;;;;;;;16.57;100.00;97976.63;18416175;32;20116;-58
2023/07/16 04:13:11;;;;;;;3.22;0.90;;;;;;;16.55;100.00;97978.88;18430717;32;20429;-58
2023/07/16 04:23:13;;;;;;;2.87;1.20;;;;;;;16.56;100.00;97955.09;18426125;32;20342;-58
2023/07/16 04:33:16;;;;;;;2.00;0.80;;;;;;;16.57;100.00;97968.44;18425980;32;20049;-58
2023/07/16 04:43:19;;;;;;;2.00;1.10;;;;;;;16.46;100.00;97956.13;18438987;32;20106;-58
2023/07/16 04:53:23;;;;;;;1.97;0.80;;;;;;;16.39;100.00;97961.13;18438480;32;20068;-58
2023/07/16 05:03:26;;;;;;;1.93;0.93;;;;;;;16.26;100.00;97971.72;18438083;32;20434;-58
2023/07/16 05:13:31;;;;;;;1.62;1.00;;;;;;;16.31;100.00;97961.81;18437481;32;20149;-58
2023/07/16 05:23:34;;;;;;;1.80;0.87;;;;;;;16.47;100.00;97956.91;18422216;32;20331;-58
2023/07/16 05:33:37;;;;;;;3.97;1.08;;;;;;;16.48;100.00;97958.53;18436596;32;20061;-58
2023/07/16 05:43:40;;;;;;;2.70;1.03;;;;;;;16.70;100.00;97982.41;18435241;32;20072;-58
2023/07/16 05:53:43;;;;;;;4.10;1.07;;;;;;;16.85;100.00;97979.38;18420985;32;20505;-58
2023/07/16 06:03:46;;;;;;;4.03;1.05;;;;;;;16.97;100.00;97975.38;18434369;32;20383;-58
2023/07/16 06:13:49;;;;;;;1.27;0.85;;;;;;;17.28;100.00;98003.66;18433617;32;20106;-58
2023/07/16 06:23:51;;;;;;;0.98;0.60;;;;;;;17.86;100.00;98016.91;18427218;32;20111;-58
2023/07/16 06:33:54;;;;;;;1.48;0.90;;;;;;;18.39;100.00;98001.66;18418796;32;20392;-59
2023/07/16 06:43:56;;;;;;;1.85;0.80;;;;;;;18.77;100.00;98003.97;18431347;32;20151;-58
2023/07/16 06:54:00;;;;;;;3.30;1.10;;;;;;;19.11;100.00;98003.28;18417982;32;20049;-58
2023/07/16 07:04:02;;;;;;;1.83;0.90;;;;;;;19.43;100.00;98005.94;18431285;32;20480;-59
2023/07/16 07:14:05;;;;;;;4.20;0.97;;;;;;;19.75;100.00;97990.97;18410838;32;20071;-59
2023/07/16 07:24:10;;;;;;;1.85;0.93;;;;;;;18.77;100.00;98007.53;18430759;32;20069;-59
2023/07/16 07:34:13;;;;;;;2.77;1.07;;;;;;;18.85;100.00;98013.34;18431061;32;20346;-59
2023/07/16 07:44:16;;;;;;;3.73;1.20;;;;;;;19.22;100.00;98017.53;18429926;32;20046;-59
2023/07/16 07:54:19;;;;;;;4.00;1.37;;;;;;;19.34;100.00;97992.25;18426468;32;20062;-58
2023/07/16 08:04:23;;;;;;;5.57;1.20;;;;;;;19.87;100.00;98011.50;18427327;32;20062;-59
2023/07/16 08:14:26;;;;;;;2.30;1.05;;;;;;;20.72;100.00;98004.59;18441068;32;20116;-58
2023/07/16 08:24:29;;;;;;;3.80;1.27;;;;;;;21.01;100.00;98022.25;18426393;32;20057;-58
2023/07/16 08:34:32;;;;;;;3.90;1.20;;;;;;;20.96;100.00;98018.56;18439737;32;20142;-59
2023/07/16 08:44:37;;;;;;;2.28;0.90;;;;;;;21.31;100.00;97998.34;18439036;32;20072;-58
2023/07/16 08:54:41;;;;;;;2.30;1.10;;;;;;;21.67;100.00;97997.78;18438649;32;20053;-59
2023/07/16 09:04:44;;;;;;;;;;;;;;;21.70;100.00;98004.56;18433190;32;20453;-58
2023/07/16 09:14:48;;;;;;;3.70;1.43;;;;;;;21.83;100.00;98031.03;18435972;32;20012;-58
2023/07/16 09:24:51;;;;;;;3.42;1.40;;;;;;;22.06;100.00;98013.34;18436600;32;20129;-58
2023/07/16 09:34:54;;;;;;;2.92;1.17;;;;;;;21.98;100.00;98013.09;18436410;32;20076;-59
2023/07/16 09:44:57;;;;;;;;;;;;;;;22.34;99.59;98028.19;18435498;32;20054;-58
2023/07/16 09:55:05;;;;;;;2.72;1.10;;;;;;;22.65;100.00;98029.66;18435538;32;19971;-58
2023/07/16 10:05:36;;;;;;;2.25;1.20;;;;;;;22.85;100.00;98025.19;18420571;32;20101;-59
2023/07/16 10:15:50;;;;;;;3.20;1.40;;;;;;;23.38;100.00;98032.03;18433755;32;20076;-58
2023/07/16 10:26:05;;;;;;;3.03;1.55;;;;;;;23.28;89.33;98025.00;18406013;32;20095;-59
2023/07/16 10:36:08;;;;;;;2.45;1.33;;;;;;;22.88;100.00;98015.44;18432459;32;20069;-58
2023/07/16 10:46:11;;;;;;;5.20;1.60;;;;;;;22.96;100.00;98011.75;18417972;32;20057;-58
2023/07/16 10:56:14;;;;;;;1.85;0.95;;;;;;;23.08;100.00;98005.47;18425034;32;20502;-58
2023/07/16 11:06:19;;;;;;;1.55;0.90;;;;;;;22.94;100.00;98003.03;18430705;32;20069;-58
2023/07/16 11:16:22;;;;;;;2.03;1.15;;;;;;;23.09;99.83;97995.22;18416608;32;20372;-58
2023/07/16 11:26:29;;;;;;;3.17;1.60;;;;;;;23.15;100.00;98004.91;18437870;32;20158;-58
2023/07/16 11:36:34;;;;;;;3.92;1.50;;;;;;;23.35;100.00;98006.75;18443011;32;20049;-58
2023/07/16 11:46:37;;;;;;;5.07;1.33;;;;;;;24.05;92.67;97988.31;18442921;32;20050;-58
2023/07/16 11:56:41;;;;;;;6.18;1.62;;;;;;;24.97;100.00;97993.06;18428297;32;20049;-58
2023/07/16 12:06:44;;;;;;;4.68;1.60;;;;;;;25.79;100.00;97983.09;18441534;32;20361;-59
2023/07/16 12:16:47;;;;;;;3.22;1.45;;;;;;;27.10;91.93;97978.00;18441153;32;20042;-59
2023/07/16 12:26:51;;;;;;;3.58;1.40;;;;;;;27.18;72.29;97980.50;18440289;32;20076;-58
2023/07/16 12:36:55;;;;;;;5.10;1.50;;;;;;;27.47;86.88;97978.16;18438454;32;20045;-58
2023/07/16 12:46:58;;;;;;;2.55;1.37;;;;;;;27.70;84.05;97966.97;18439201;32;20058;-59
2023/07/16 12:57:02;;;;;;;2.20;1.40;;;;;;;26.23;88.32;97968.16;18438837;32;20099;-58
2023/07/16 13:07:05;;;;;;;3.15;1.42;;;;;;;25.89;85.58;97962.31;18438011;32;20046;-58
2023/07/16 13:17:09;;;;;;;1.67;1.25;;;;;;;25.52;88.10;97959.97;18437478;32;20065;-58
2023/07/16 13:27:22;;;;;;;2.47;1.23;;;;;;;25.54;93.40;97957.63;18436546;32;20061;-58
2023/07/16 13:37:25;;;;;;;3.00;1.45;;;;;;;25.80;87.41;97936.81;18422213;32;20086;-58
2023/07/16 13:47:28;;;;;;;4.03;1.55;;;;;;;26.88;86.11;97924.94;18435369;32;20045;-59
2023/07/16 13:57:32;;;;;;;4.57;1.77;;;;;;;28.26;69.62;97939.44;18434738;32;20041;-59
2023/07/16 14:07:35;;;;;;;3.70;1.83;;;;;;;29.59;71.85;97936.91;18420427;32;20053;-59
2023/07/16 14:17:41;;;;;;;3.00;1.60;;;;;;;30.69;54.21;97922.88;18433929;32;20090;-59
2023/07/16 14:27:44;;;;;;;3.53;1.35;;;;;;;28.64;57.28;97923.53;18432952;32;20069;-59
2023/07/16 14:37:47;;;;;;;2.72;1.62;;;;;;;27.18;70.48;97905.53;18432237;32;20409;-58
2023/07/16 14:47:50;;;;;;;3.08;1.70;;;;;;;26.52;82.53;97902.12;18431994;32;20073;-58
2023/07/16 14:57:54;;;;;;;2.95;1.60;;;;;;;26.14;86.20;97909.41;18431332;32;20097;-58
2023/07/16 15:07:57;;;;;;;4.32;1.67;;;;;;;25.96;80.67;97903.50;18431461;32;20103;-58
2023/07/16 15:18:03;;;;;;;6.07;2.00;;;;;;;26.18;75.13;97896.41;18431004;32;20053;-58
2023/07/16 15:28:06;;;;;;;3.22;1.48;;;;;;;25.85;83.94;97898.53;18417147;32;20053;-58
2023/07/16 15:38:09;;;;;;;3.40;1.77;;;;;;;25.96;74.51;97889.63;18430158;32;20194;-58
2023/07/16 15:48:13;;;;;;;5.97;2.15;;;;;;;25.60;81.70;97902.75;18430030;32;20335;-58
2023/07/16 15:58:18;;;;;;;19.73;12.60;;;;;;;25.32;75.83;97901.78;18402673;32;20132;-58
2023/07/16 16:08:23;;;;;;;17.70;11.75;;;;;;;25.30;79.06;97898.59;18431147;32;20049;-58
2023/07/16 16:18:26;;;;;;;6.55;4.53;;;;;;;25.13;91.81;97887.91;18441097;32;20057;-58
2023/07/16 16:28:30;;;;;;;2.72;2.05;;;;;;;25.20;91.22;97888.06;18420206;32;20093;-58
2023/07/16 16:38:33;;;;;;;2.22;1.25;;;;;;;25.30;91.31;97864.59;18439520;32;20041;-58
2023/07/16 16:48:38;;;;;;;3.08;1.62;;;;;;;25.67;93.97;97867.72;18439065;32;20054;-58
2023/07/16 16:58:41;;;;;;;2.45;1.20;;;;;;;25.90;93.63;97866.97;18438741;32;20090;-58
2023/07/16 17:08:44;;;;;;;3.10;1.45;;;;;;;25.69;74.14;97870.91;18423773;32;20442;-58
2023/07/16 17:18:47;;;;;;;2.72;1.48;;;;;;;25.07;81.09;97875.53;18418654;32;20112;-58
2023/07/16 17:28:51;;;;;;;2.65;1.58;;;;;;;24.27;98.34;97887.47;18421185;32;20049;-58
2023/07/16 17:38:54;;;;;;;3.20;1.27;;;;;;;23.97;100.00;97879.59;18422021;32;20361;-58
2023/07/16 17:48:59;;;;;;;2.97;1.40;;;;;;;23.61;100.00;97891.56;18421185;32;20490;-58
2023/07/16 17:59:02;;;;;;;2.28;1.75;;;;;;;23.29;100.00;97911.56;18435423;32;20053;-58
2023/07/16 18:09:05;;;;;;;2.70;1.60;;;;;;;22.87;100.00;97899.97;18420726;32;20087;-58
2023/07/16 18:19:12;;;;;;;1.67;1.25;;;;;;;22.44;100.00;97886.44;18419780;32;20076;-58
2023/07/16 18:29:18;;;;;;;4.37;1.73;;;;;;;22.01;100.00;97882.22;18419085;32;20143;-58
2023/07/16 18:39:20;;;;;;;;;;;;;;;21.72;100.00;97903.22;18417785;32;20116;-58
2023/07/16 18:49:23;;;;;;;3.58;1.73;;;;;;;21.41;100.00;97903.63;18432298;32;20031;-58
2023/07/16 18:59:26;;;;;;;3.42;1.40;;;;;;;21.05;100.00;97907.75;18417883;32;20065;-58
2023/07/16 19:09:30;;;;;;;2.28;1.70;;;;;;;20.76;100.00;97910.19;18424797;32;20068;-58
2023/07/16 19:19:33;;;;;;;6.12;1.90;;;;;;;20.52;100.00;97919.00;18430992;32;20072;-58
2023/07/16 19:29:36;;;;;;;3.87;2.20;;;;;;;20.31;100.00;97925.22;18430687;32;20054;-58
2023/07/16 19:39:39;;;;;;;4.10;2.60;;;;;;;20.01;100.00;97938.06;18416310;32;20345;-58
2023/07/16 19:49:42;;;;;;;6.35;3.75;;;;;;;19.62;100.00;97948.88;18426084;32;20425;-58
2023/07/16 19:59:45;;;;;;;4.30;2.57;;;;;;;19.29;100.00;97946.59;18437576;32;20113;-58
2023/07/16 20:09:50;;;;;;;3.10;2.00;;;;;;;19.11;100.00;97961.38;18440001;32;20071;-58
2023/07/16 20:19:54;;;;;;;3.00;1.55;;;;;;;18.96;100.00;97962.62;18441207;32;20086;-58
2023/07/16 20:29:57;;;;;;;3.62;2.15;;;;;;;18.88;100.00;97975.19;18426622;32;20053;-58
2023/07/16 20:40:00;;;;;;;2.37;1.60;;;;;;;18.69;100.00;97986.38;18439748;32;20042;-58
2023/07/16 20:50:03;;;;;;;2.57;1.90;;;;;;;18.59;100.00;97990.19;18425286;32;20392;-58
2023/07/16 21:00:14;;;;;;;4.40;1.75;;;;;;;18.52;100.00;97997.25;18423657;32;20045;-58
2023/07/16 21:10:23;;;;;;;2.70;1.55;;;;;;;18.45;100.00;97990.28;18438181;32;20053;-58
2023/07/16 21:20:30;;;;;;;2.92;1.60;;;;;;;18.29;100.00;98000.84;18437894;32;20049;-58
2023/07/16 21:30:34;;;;;;;4.18;1.98;;;;;;;18.11;100.00;98007.28;18423252;32;20377;-58
2023/07/16 21:40:37;;;;;;;2.70;2.08;;;;;;;17.95;100.00;98004.94;18435911;32;20049;-58
2023/07/16 21:50:41;;;;;;;3.27;2.40;;;;;;;17.83;100.00;98004.66;18428991;32;20138;-58
2023/07/16 22:00:44;;;;;;;5.23;1.93;;;;;;;17.77;100.00;98019.56;18434818;32;20046;-58
2023/07/16 22:10:49;;;;;;;7.55;2.25;;;;;;;17.78;100.00;98023.91;18407558;32;20133;-58
2023/07/16 22:20:52;;;;;;;2.70;1.73;;;;;;;17.79;100.00;98022.81;18433682;32;20046;-58
2023/07/16 22:30:54;;;;;;;4.83;3.03;;;;;;;17.81;100.00;98026.03;18433268;32;20049;-58
2023/07/16 22:40:58;;;;;;;3.97;1.98;;;;;;;17.79;100.00;98031.00;18432368;32;20095;-58
2023/07/16 22:51:00;;;;;;;3.33;1.73;;;;;;;17.83;100.00;98037.47;18418358;32;20115;-58
2023/07/16 23:01:10;;;;;;;2.40;1.98;;;;;;;17.86;100.00;98039.59;18431611;32;20525;-58
2023/07/16 23:11:12;;;;;;;2.90;1.65;;;;;;;17.87;100.00;98051.31;18431816;32;20053;-58
2023/07/16 23:21:15;;;;;;;4.20;1.53;;;;;;;17.89;100.00;98055.38;18436679;32;20042;-58
2023/07/16 23:31:19;;;;;;;3.35;1.62;;;;;;;17.85;100.00;98037.97;18444052;32;20478;-58
2023/07/16 23:41:22;;;;;;;;;;;;;;;17.90;100.00;98024.16;18443238;32;20083;-58
2023/07/16 23:51:25;;;;;;;5.82;2.03;;;;;;;17.79;100.00;98048.22;18443246;32;19949;-58
